Terminal Aerodrome Forecast
Issued by NWS Amarillo, TX

Home | Current Version | Previous Version | Text Only | Print | Product List | Glossary On
Versions: 1 2 3 4 5 6 7 8 9 10 11 12 13 14 15 16 17 18 19 20 21 22 23 24 25
245
FTUS44 KAMA 180557 AAA
TAFDHT
TAF AMD
KDHT 180557Z 1806/1906 18007KT P6SM VCSH SCT015 OVC020
     FM180700 21007KT P6SM -SHRA OVC015
     FM181000 21008KT P6SM SCT100
     FM181800 20011KT P6SM SCT200
     FM190000 19008KT P6SM FEW200=

USA.gov is the U.S. government's official web portal to all federal, state and local government web resources and services.